Time;durP1;ratioP1;P1;durP2;ratioP2;P2;SDS_P1;SDS_P2;PMS_P1;PMS_P2;Temp;Humidity;BMP_temperature;BMP_pressure;BME280_temperature;BME280_humidity;BME280_pressure;Samples;Min_cycle;Max_cycle;Signal;HPM_P1;HPM_P2
2024/02/07 00:00:40;;;;;;;5.03;1.05;;;;;;;6.38;100.00;100200.00;5069764;28;20032;-50
2024/02/07 00:03:09;;;;;;;3.92;0.70;;;;;;;6.30;100.00;100201.34;5068147;28;20119;-48
2024/02/07 00:05:37;;;;;;;5.82;0.82;;;;;;;6.28;100.00;100192.78;5066232;28;20055;-48
2024/02/07 00:08:05;;;;;;;2.85;0.85;;;;;;;6.29;100.00;100181.41;5071392;28;20048;-47
2024/02/07 00:10:34;;;;;;;5.55;1.10;;;;;;;6.33;100.00;100188.16;5069307;28;20040;-48
2024/02/07 00:13:02;;;;;;;5.25;0.90;;;;;;;6.27;100.00;100197.16;5071400;28;20048;-46
2024/02/07 00:15:30;;;;;;;5.45;1.25;;;;;;;6.20;100.00;100201.91;5070726;28;20539;-60
2024/02/07 00:18:00;;;;;;;5.22;1.30;;;;;;;6.12;100.00;100204.09;5066290;28;20120;-59
2024/02/07 00:20:28;;;;;;;4.88;0.75;;;;;;;6.04;100.00;100198.47;5067535;28;20072;-59
2024/02/07 00:22:59;;;;;;;5.50;1.00;;;;;;;6.07;100.00;100199.13;5066728;28;20098;-59
2024/02/07 00:25:27;;;;;;;4.63;0.88;;;;;;;6.01;100.00;100196.88;5065415;28;20058;-59
2024/02/07 00:27:58;;;;;;;5.03;0.80;;;;;;;5.99;100.00;100203.13;5069243;28;20097;-59
2024/02/07 00:30:26;;;;;;;4.13;0.95;;;;;;;5.92;100.00;100203.41;5070172;28;20120;-59
2024/02/07 00:33:07;;;;;;;5.88;0.98;;;;;;;5.90;100.00;100205.28;5068769;28;20554;-60
2024/02/07 00:35:35;;;;;;;4.85;0.93;;;;;;;6.00;100.00;100204.78;5066633;28;20051;-58
2024/02/07 00:38:03;;;;;;;5.63;0.88;;;;;;;6.00;100.00;100204.78;5069134;28;20139;-59
2024/02/07 00:40:33;;;;;;;5.05;0.80;;;;;;;5.99;100.00;100205.72;5071463;28;20033;-58
2024/02/07 00:43:01;;;;;;;3.88;0.82;;;;;;;5.96;100.00;100211.94;5076781;28;20037;-59
2024/02/07 00:45:30;;;;;;;7.00;1.25;;;;;;;5.92;100.00;100213.84;5070589;28;20048;-58
2024/02/07 00:47:58;;;;;;;5.15;1.00;;;;;;;5.86;100.00;100222.03;5071154;28;20040;-59
2024/02/07 00:50:27;;;;;;;6.88;0.80;;;;;;;5.75;100.00;100225.25;5071290;28;20044;-58
2024/02/07 00:52:56;;;;;;;5.35;1.00;;;;;;;5.75;100.00;100222.63;5069864;28;20060;-58
2024/02/07 00:55:24;;;;;;;6.00;0.98;;;;;;;5.72;100.00;100224.56;5071223;28;20036;-60
2024/02/07 00:57:52;;;;;;;4.47;0.90;;;;;;;5.70;100.00;100235.09;5070707;28;20132;-59
2024/02/07 01:00:23;;;;;;;4.15;1.13;;;;;;;5.64;100.00;100231.97;5070113;28;20495;-58
2024/02/07 01:02:52;;;;;;;3.00;0.80;;;;;;;5.58;100.00;100233.13;5074103;28;20097;-60
2024/02/07 01:05:21;;;;;;;5.28;1.05;;;;;;;5.63;100.00;100236.34;5072701;28;20044;-59
2024/02/07 01:07:51;;;;;;;6.20;1.00;;;;;;;5.54;100.00;100235.06;5072289;28;20049;-59
2024/02/07 01:10:19;;;;;;;7.43;0.90;;;;;;;5.45;100.00;100238.16;5072360;28;20123;-59
2024/02/07 01:12:48;;;;;;;3.88;1.10;;;;;;;5.45;100.00;100230.31;5070805;28;20044;-58
2024/02/07 01:15:17;;;;;;;6.43;1.73;;;;;;;5.50;100.00;100220.50;5070977;28;20048;-59
2024/02/07 01:17:48;;;;;;;5.00;1.07;;;;;;;5.56;100.00;100220.19;5072067;28;20057;-60
2024/02/07 01:20:16;;;;;;;6.38;1.20;;;;;;;5.46;100.00;100233.81;5070855;28;20045;-59
2024/02/07 01:22:45;;;;;;;5.03;0.90;;;;;;;5.41;100.00;100234.03;5070278;28;20048;-59
2024/02/07 01:25:15;;;;;;;4.25;1.30;;;;;;;5.38;100.00;100227.22;5070570;28;20493;-59
2024/02/07 01:27:43;;;;;;;5.45;1.05;;;;;;;5.46;100.00;100241.63;5070802;28;20123;-59
2024/02/07 01:30:12;;;;;;;4.80;1.20;;;;;;;5.45;100.00;100238.16;5070036;28;20436;-59
2024/02/07 01:32:41;;;;;;;5.13;0.93;;;;;;;5.34;100.00;100220.47;5071276;28;20123;-60
2024/02/07 01:35:10;;;;;;;5.65;1.10;;;;;;;5.29;100.00;100226.84;5071710;28;20048;-59
2024/02/07 01:37:39;;;;;;;5.93;0.93;;;;;;;5.23;100.00;100234.06;5070108;28;20045;-59
2024/02/07 01:40:09;;;;;;;8.00;1.35;;;;;;;5.30;100.00;100238.97;5071565;28;20036;-59
2024/02/07 01:42:39;;;;;;;7.85;1.13;;;;;;;5.26;100.00;100238.28;5071719;28;20503;-60
2024/02/07 01:45:22;;;;;;;3.88;1.00;;;;;;;5.22;100.00;100229.81;5069106;28;20072;-59
2024/02/07 01:47:50;;;;;;;;;;;;;;;5.27;100.00;100239.16;5071327;28;20447;-59
2024/02/07 01:50:21;;;;;;;5.63;0.93;;;;;;;5.20;100.00;100234.25;5071280;28;20451;-60
2024/02/07 01:52:52;;;;;;;5.65;1.30;;;;;;;5.22;100.00;100239.38;5070054;28;20115;-59
2024/02/07 01:55:21;;;;;;;5.07;1.17;;;;;;;5.17;100.00;100226.59;5067509;28;20527;-59
2024/02/07 01:57:51;;;;;;;8.45;1.10;;;;;;;5.21;100.00;100240.31;5072899;28;20571;-59
2024/02/07 02:00:21;;;;;;;7.38;1.10;;;;;;;5.22;100.00;100231.53;5070523;28;20487;-59
2024/02/07 02:02:53;;;;;;;5.45;0.95;;;;;;;5.22;100.00;100232.41;5070608;28;20068;-59
2024/02/07 02:05:21;;;;;;;5.38;1.10;;;;;;;5.14;100.00;100247.63;5071111;28;20049;-59
2024/02/07 02:07:50;;;;;;;5.22;1.20;;;;;;;5.14;100.00;100211.13;5072431;28;20057;-59
2024/02/07 02:10:19;;;;;;;7.82;1.30;;;;;;;5.18;100.00;100238.72;5068502;28;20041;-59
2024/02/07 02:12:51;;;;;;;6.47;1.02;;;;;;;5.15;100.00;100238.84;5067391;28;20049;-59
2024/02/07 02:15:19;;;;;;;6.22;1.00;;;;;;;5.14;100.00;100252.81;5071263;28;20070;-59
2024/02/07 02:17:47;;;;;;;6.95;1.05;;;;;;;5.07;100.00;100241.00;5069966;28;20443;-59
2024/02/07 02:20:16;;;;;;;5.60;1.20;;;;;;;4.97;100.00;100234.59;5072655;28;20070;-59
2024/02/07 02:23:17;;;;;;;3.85;1.35;;;;;;;4.88;100.00;100239.38;5070389;28;20377;-58
2024/02/07 02:26:13;;;;;;;5.28;1.17;;;;;;;4.86;100.00;100235.97;5057988;28;20064;-59
2024/02/07 02:29:04;;;;;;;7.43;1.00;;;;;;;4.78;100.00;100247.72;5068628;28;20045;-59
2024/02/07 02:31:36;;;;;;;7.65;1.48;;;;;;;4.72;100.00;100247.09;5069610;28;20039;-57
2024/02/07 02:34:06;;;;;;;4.32;1.08;;;;;;;4.75;100.00;100238.31;5069983;28;20047;-59
2024/02/07 02:36:37;;;;;;;9.32;2.03;;;;;;;4.77;100.00;100257.28;5070346;28;20055;-59
2024/02/07 02:39:06;;;;;;;5.93;0.88;;;;;;;4.71;100.00;100239.38;5070113;28;20380;-59
2024/02/07 02:41:37;;;;;;;4.70;1.02;;;;;;;4.72;100.00;100233.25;5071983;28;20566;-59
2024/02/07 02:44:05;;;;;;;5.88;1.10;;;;;;;4.76;100.00;100237.38;5073104;28;20063;-58
2024/02/07 02:46:35;;;;;;;5.60;1.05;;;;;;;4.75;100.00;100246.13;5072808;28;20067;-59
2024/02/07 02:49:03;;;;;;;5.80;1.00;;;;;;;4.70;100.00;100245.50;5071138;28;20106;-59
2024/02/07 02:51:32;;;;;;;5.82;1.33;;;;;;;4.70;100.00;100248.09;5069428;28;20028;-59
2024/02/07 02:54:02;;;;;;;6.45;0.85;;;;;;;4.66;100.00;100246.56;5069076;28;20463;-59
2024/02/07 02:56:31;;;;;;;5.88;1.10;;;;;;;4.69;100.00;100259.44;5068524;28;20048;-59
2024/02/07 02:59:05;;;;;;;4.43;1.05;;;;;;;4.67;100.00;100253.47;5071729;28;20076;-59
2024/02/07 03:01:35;;;;;;;7.65;1.45;;;;;;;4.59;100.00;100255.63;5070650;28;20040;-59
2024/02/07 03:04:04;;;;;;;5.22;1.00;;;;;;;4.67;100.00;100263.88;5068738;28;20458;-59
2024/02/07 03:06:50;;;;;;;7.38;1.33;;;;;;;4.59;100.00;100261.66;5071075;28;20071;-58
2024/02/07 03:09:21;;;;;;;5.60;0.90;;;;;;;4.42;100.00;100272.91;5070627;28;20102;-58
2024/02/07 03:11:49;;;;;;;5.50;1.10;;;;;;;4.39;100.00;100279.13;5068992;28;20041;-59
2024/02/07 03:14:17;;;;;;;8.45;1.20;;;;;;;4.30;100.00;100291.72;5069271;28;20500;-59
2024/02/07 03:16:47;;;;;;;4.25;0.98;;;;;;;4.29;100.00;100290.88;5069441;28;20051;-59
2024/02/07 03:19:16;;;;;;;8.23;2.33;;;;;;;4.25;100.00;100285.91;5068956;28;20564;-59
2024/02/07 03:21:46;;;;;;;6.38;0.90;;;;;;;4.12;100.00;100304.69;5071822;28;20395;-59
2024/02/07 03:24:17;;;;;;;;;;;;;;;4.11;100.00;100296.97;5069902;28;20048;-59
2024/02/07 03:26:46;;;;;;;7.32;0.95;;;;;;;4.08;100.00;100290.13;5067605;28;19920;-59
2024/02/07 03:29:17;;;;;;;;;;;;;;;4.03;100.00;100290.34;5071547;28;20102;-59
2024/02/07 03:31:47;;;;;;;3.63;0.80;;;;;;;4.03;100.00;100290.34;5067489;28;19959;-58
2024/02/07 03:34:15;;;;;;;5.32;0.93;;;;;;;4.00;100.00;100284.44;5066851;28;20052;-58
2024/02/07 03:36:43;;;;;;;6.07;0.88;;;;;;;3.96;100.00;100291.53;5069705;28;20045;-59
2024/02/07 03:39:13;;;;;;;7.05;1.65;;;;;;;4.05;100.00;100277.28;5068163;28;20059;-59
2024/02/07 03:41:41;;;;;;;8.02;1.10;;;;;;;4.05;100.00;100282.47;5068032;28;20124;-59
2024/02/07 03:44:12;;;;;;;7.07;0.90;;;;;;;4.07;100.00;100280.63;5067913;28;20587;-59
2024/02/07 03:46:41;;;;;;;5.05;0.93;;;;;;;3.93;100.00;100281.28;5066615;28;20373;-59
2024/02/07 03:49:13;;;;;;;5.88;0.85;;;;;;;3.87;100.00;100284.16;5068737;28;20050;-59
2024/02/07 03:51:41;;;;;;;6.43;1.02;;;;;;;3.80;100.00;100281.00;5066844;28;20076;-58
2024/02/07 03:54:10;;;;;;;5.43;1.02;;;;;;;3.86;100.00;100278.13;5068442;28;20071;-59
2024/02/07 03:56:38;;;;;;;5.88;0.93;;;;;;;3.89;100.00;100267.56;5067426;28;20446;-59
2024/02/07 03:59:08;;;;;;;5.13;1.20;;;;;;;3.89;100.00;100264.97;5070225;28;20542;-59
2024/02/07 04:01:37;;;;;;;5.72;0.80;;;;;;;3.83;100.00;100273.06;5069195;28;20056;-59
2024/02/07 04:04:07;;;;;;;6.55;1.50;;;;;;;3.83;100.00;100273.06;5066958;28;20047;-59
2024/02/07 04:06:40;;;;;;;7.57;1.23;;;;;;;3.87;100.00;100286.75;5071257;28;20032;-59
2024/02/07 04:09:08;;;;;;;4.97;0.77;;;;;;;3.82;100.00;100283.56;5071121;28;20395;-59
2024/02/07 05:17:19;;;;;;;9.95;1.20;;;;;;;3.82;100.00;100283.56;5073446;28;20048;-59
2024/02/07 05:19:47;;;;;;;4.82;0.95;;;;;;;3.80;100.00;100273.19;5074908;28;20056;-59
2024/02/07 05:22:17;;;;;;;5.75;1.20;;;;;;;3.82;100.00;100281.78;5073483;28;20492;-59
2024/02/07 05:24:47;;;;;;;5.53;1.15;;;;;;;3.82;100.00;100286.16;5072523;28;20098;-59
2024/02/07 05:27:17;;;;;;;6.45;1.20;;;;;;;3.77;100.00;100281.16;5074066;28;20127;-59
2024/02/07 05:29:46;;;;;;;7.45;1.10;;;;;;;3.80;100.00;100283.59;5073949;28;20094;-59
2024/02/07 05:32:14;;;;;;;8.55;1.60;;;;;;;3.80;100.00;100283.59;5073547;28;20169;-58
2024/02/07 05:34:42;;;;;;;7.15;1.08;;;;;;;3.82;100.00;100292.19;5073230;28;20106;-59
2024/02/07 05:37:10;;;;;;;10.77;1.20;;;;;;;3.82;100.00;100305.19;5073316;28;20056;-59
2024/02/07 05:39:39;;;;;;;6.57;1.10;;;;;;;3.83;100.00;100317.28;5074521;28;20044;-59
2024/02/07 05:42:07;;;;;;;8.68;1.50;;;;;;;3.80;100.00;100314.81;5073936;28;20150;-59
2024/02/07 05:44:38;;;;;;;7.65;1.20;;;;;;;3.81;100.00;100323.47;5073205;28;20102;-59
2024/02/07 05:47:06;;;;;;;8.88;1.38;;;;;;;3.78;100.00;100315.81;5073574;28;20048;-59
2024/02/07 05:49:34;;;;;;;6.72;1.17;;;;;;;3.77;100.00;100332.34;5073168;28;20044;-59
2024/02/07 05:52:03;;;;;;;4.63;0.95;;;;;;;3.75;100.00;100327.19;5073045;28;20106;-59
2024/02/07 05:54:33;;;;;;;6.85;1.30;;;;;;;3.80;100.00;100332.19;5072309;28;20048;-59
2024/02/07 05:57:01;;;;;;;6.85;1.40;;;;;;;3.77;100.00;100340.13;5071742;28;20044;-59
2024/02/07 05:59:32;;;;;;;4.47;1.10;;;;;;;3.78;100.00;100344.44;5072662;28;20658;-59
2024/02/07 06:02:02;;;;;;;8.43;1.20;;;;;;;3.75;100.00;100347.16;5073874;28;20135;-58
2024/02/07 06:04:31;;;;;;;8.90;1.40;;;;;;;3.79;100.00;100343.50;5072966;28;20123;-59
2024/02/07 06:07:00;;;;;;;6.43;1.23;;;;;;;3.80;100.00;100342.59;5072115;28;20111;-59
2024/02/07 06:09:28;;;;;;;8.30;1.30;;;;;;;3.78;100.00;100347.88;5073531;28;20562;-59
2024/02/07 06:11:56;;;;;;;8.02;1.33;;;;;;;3.77;100.00;100345.34;5074024;28;20383;-59
2024/02/07 06:14:24;;;;;;;7.63;1.38;;;;;;;3.77;100.00;100356.56;5072030;28;20123;-59
2024/02/07 06:16:55;;;;;;;7.78;1.42;;;;;;;3.79;100.00;100353.91;5071801;28;20753;-59
2024/02/07 06:19:27;;;;;;;13.50;1.70;;;;;;;3.78;100.00;100358.28;5071780;28;20052;-59
2024/02/07 06:21:55;;;;;;;7.75;1.70;;;;;;;3.77;100.00;100359.19;5072127;28;20045;-59
2024/02/07 06:24:23;;;;;;;10.15;1.52;;;;;;;3.73;100.00;100358.47;5073073;28;20048;-60
2024/02/07 06:26:54;;;;;;;5.53;1.30;;;;;;;3.77;100.00;100351.38;5071341;28;20058;-58
2024/02/07 06:29:23;;;;;;;7.68;2.08;;;;;;;3.75;100.00;100355.81;5071611;28;20078;-59
2024/02/07 06:31:51;;;;;;;9.05;1.80;;;;;;;3.76;100.00;100367.06;5071899;28;20381;-58
2024/02/07 06:34:20;;;;;;;9.68;1.50;;;;;;;3.78;100.00;100363.47;5072771;28;20102;-59
2024/02/07 06:36:50;;;;;;;7.30;1.73;;;;;;;3.77;100.00;100366.97;5073121;28;20067;-59
2024/02/07 06:39:18;;;;;;;6.95;1.80;;;;;;;3.75;100.00;100368.81;5071361;28;20064;-59
2024/02/07 06:41:46;;;;;;;6.70;1.33;;;;;;;3.76;100.00;100380.06;5071861;28;20048;-59
2024/02/07 06:44:14;;;;;;;10.55;1.52;;;;;;;3.75;100.00;100374.03;5071733;28;20048;-59
2024/02/07 06:46:43;;;;;;;11.40;1.45;;;;;;;3.72;100.00;100380.22;5070665;28;20048;-58
2024/02/07 06:49:11;;;;;;;10.82;1.45;;;;;;;3.70;100.00;100366.41;5070478;28;20091;-59
2024/02/07 06:51:40;;;;;;;11.02;1.85;;;;;;;3.68;100.00;100380.38;5071374;28;20036;-58
2024/02/07 06:54:11;;;;;;;10.90;1.58;;;;;;;3.66;100.00;100383.06;5072960;28;20119;-58
2024/02/07 06:56:40;;;;;;;9.50;1.80;;;;;;;3.65;100.00;100394.38;5072787;28;20044;-59
2024/02/07 06:59:11;;;;;;;9.77;1.35;;;;;;;3.64;100.00;100405.72;5073090;28;20045;-59
2024/02/07 07:01:40;;;;;;;6.90;1.23;;;;;;;3.64;100.00;100394.44;5072535;28;20395;-58
2024/02/07 07:04:08;;;;;;;8.05;1.42;;;;;;;3.67;100.00;100402.13;5072314;28;20453;-50
2024/02/07 07:06:37;;;;;;;7.03;1.55;;;;;;;3.65;100.00;100398.72;5071677;28;20139;-49
2024/02/07 07:09:06;;;;;;;11.25;1.48;;;;;;;3.63;100.00;100393.59;5068522;28;20540;-50
2024/02/07 07:11:35;;;;;;;8.02;1.20;;;;;;;3.64;100.00;100399.63;5070560;28;20063;-59
2024/02/07 07:14:03;;;;;;;7.40;1.70;;;;;;;3.64;100.00;100394.44;5069800;28;20113;-48
2024/02/07 07:16:32;;;;;;;7.97;1.30;;;;;;;3.67;100.00;100386.53;5068308;28;20080;-49
2024/02/07 07:19:01;;;;;;;9.77;1.67;;;;;;;3.67;100.00;100389.97;5071465;28;20555;-49
2024/02/07 07:21:30;;;;;;;10.35;1.90;;;;;;;3.67;100.00;100394.31;5071172;28;20055;-50
2024/02/07 07:23:59;;;;;;;6.45;1.63;;;;;;;3.68;100.00;100390.78;5068543;28;20036;-48
2024/02/07 07:26:27;;;;;;;10.52;1.95;;;;;;;3.63;100.00;100391.00;5067250;28;20052;-50
2024/02/07 07:28:58;;;;;;;8.20;1.50;;;;;;;3.63;100.00;100393.59;5071557;28;20407;-50
2024/02/07 07:31:27;;;;;;;8.93;1.65;;;;;;;3.66;100.00;100390.03;5072133;28;20429;-48
2024/02/07 07:33:55;;;;;;;7.57;1.55;;;;;;;3.68;100.00;100394.25;5072774;28;20059;-47
2024/02/07 07:36:26;;;;;;;6.25;1.73;;;;;;;3.69;100.00;100400.28;5071962;28;20057;-51
2024/02/07 07:38:55;;;;;;;9.48;1.55;;;;;;;3.70;100.00;100396.78;5072289;28;20132;-49
2024/02/07 07:41:26;;;;;;;7.82;1.90;;;;;;;3.72;100.00;100405.34;5072349;28;20048;-48
2024/02/07 07:43:57;;;;;;;8.20;1.65;;;;;;;3.71;100.00;100407.13;5072195;28;20051;-50
2024/02/07 07:46:27;;;;;;;11.23;2.42;;;;;;;3.72;100.00;100410.56;5072269;28;20511;-58
2024/02/07 07:48:58;;;;;;;10.82;1.85;;;;;;;3.72;100.00;100413.16;5073546;28;20047;-59
2024/02/07 07:51:27;;;;;;;8.05;2.00;;;;;;;3.72;100.00;100407.94;5076438;28;20055;-58
2024/02/07 07:53:55;;;;;;;6.68;1.60;;;;;;;3.71;100.00;100408.88;5076526;28;20052;-59
2024/02/07 07:56:23;;;;;;;8.50;1.48;;;;;;;3.73;100.00;100413.09;5074617;28;20127;-59
2024/02/07 07:58:51;;;;;;;12.75;2.30;;;;;;;3.74;100.00;100416.56;5073985;28;20392;-59
2024/02/07 08:01:22;;;;;;;10.27;1.85;;;;;;;3.73;100.00;100423.50;5075314;28;20051;-59
2024/02/07 08:03:53;;;;;;;9.07;2.13;;;;;;;3.75;100.00;100441.66;5075968;28;20040;-59
2024/02/07 08:06:22;;;;;;;10.73;1.80;;;;;;;3.74;100.00;100445.16;5075564;28;20131;-59
2024/02/07 08:08:51;;;;;;;9.30;1.90;;;;;;;3.76;100.00;100443.31;5075561;28;20476;-58
2024/02/07 08:11:19;;;;;;;8.85;2.10;;;;;;;3.78;100.00;100435.47;5074825;28;20044;-58
2024/02/07 08:13:47;;;;;;;11.57;2.00;;;;;;;3.77;100.00;100441.59;5076272;28;20036;-59
2024/02/07 08:16:16;;;;;;;11.05;2.22;;;;;;;3.79;100.00;100443.22;5075655;28;20139;-59
2024/02/07 08:18:44;;;;;;;11.23;2.58;;;;;;;3.81;100.00;100446.59;5074740;28;20049;-59
2024/02/07 08:21:14;;;;;;;9.48;2.00;;;;;;;3.81;100.00;100451.78;5074536;28;20057;-59
2024/02/07 08:23:42;;;;;;;9.52;2.17;;;;;;;3.86;100.00;100454.22;5074716;28;20056;-59
2024/02/07 08:26:11;;;;;;;11.77;2.53;;;;;;;3.87;100.00;100455.88;5075922;28;20036;-58
2024/02/07 08:28:39;;;;;;;10.63;2.20;;;;;;;3.85;100.00;100463.75;5075990;28;20160;-58
2024/02/07 08:31:11;;;;;;;11.75;2.38;;;;;;;3.86;100.00;100452.44;5076038;28;20102;-58
2024/02/07 08:33:39;;;;;;;12.73;2.20;;;;;;;3.88;100.00;100452.38;5075907;28;20517;-59
2024/02/07 08:36:08;;;;;;;13.02;2.35;;;;;;;3.90;100.00;100460.97;5075810;28;20376;-59
2024/02/07 08:38:41;;;;;;;9.05;2.05;;;;;;;3.91;100.00;100464.41;5075767;28;20036;-58
2024/02/07 08:41:09;;;;;;;11.93;2.17;;;;;;;3.91;100.00;100469.59;5075698;28;20053;-59
2024/02/07 08:43:37;;;;;;;9.93;2.03;;;;;;;3.94;100.00;100478.13;5075723;28;20043;-59
2024/02/07 08:46:05;;;;;;;11.43;2.30;;;;;;;3.96;100.00;100483.28;5074589;28;20525;-59
2024/02/07 08:48:33;;;;;;;11.68;2.35;;;;;;;3.99;100.00;100485.72;5073179;28;20037;-59
2024/02/07 08:51:03;;;;;;;9.65;2.05;;;;;;;4.01;100.00;100484.75;5075657;28;20079;-47
2024/02/07 08:53:31;;;;;;;9.40;2.30;;;;;;;4.01;100.00;100483.91;5073934;28;20040;-48
2024/02/07 08:56:00;;;;;;;14.25;2.30;;;;;;;4.04;100.00;100483.78;5074202;28;20044;-58
2024/02/07 08:58:29;;;;;;;10.77;2.42;;;;;;;4.04;100.00;100486.38;5073820;28;20044;-46
2024/02/07 09:01:01;;;;;;;10.38;1.85;;;;;;;4.04;100.00;100491.59;5070945;28;20122;-59
2024/02/07 09:03:29;;;;;;;9.23;2.35;;;;;;;4.07;100.00;100494.03;5073726;28;20044;-58
2024/02/07 09:05:57;;;;;;;6.45;1.80;;;;;;;4.09;100.00;100487.03;5073783;28;20524;-59
2024/02/07 09:08:26;;;;;;;11.52;2.40;;;;;;;4.10;100.00;100486.09;5073922;28;20044;-59
2024/02/07 09:10:58;;;;;;;10.00;2.78;;;;;;;4.11;100.00;100490.41;5074716;28;20047;-59
2024/02/07 09:13:28;;;;;;;11.10;2.30;;;;;;;4.13;100.00;100493.78;5075293;28;20052;-59
2024/02/07 09:15:56;;;;;;;10.52;2.40;;;;;;;4.14;100.00;100489.41;5074937;28;20139;-48
2024/02/07 09:18:27;;;;;;;11.57;2.88;;;;;;;4.13;100.00;100504.19;5074864;28;20083;-46
2024/02/07 09:20:55;;;;;;;10.80;2.40;;;;;;;4.17;100.00;100486.69;5073395;28;20549;-58
2024/02/07 09:23:23;;;;;;;9.77;2.28;;;;;;;4.18;100.00;100485.78;5074036;28;20052;-59
2024/02/07 09:25:51;;;;;;;10.63;1.85;;;;;;;4.22;100.00;100485.56;5072660;28;20056;-59
2024/02/07 09:28:19;;;;;;;10.52;2.78;;;;;;;4.23;100.00;100491.63;5073091;28;20392;-59
2024/02/07 09:30:49;;;;;;;11.48;2.40;;;;;;;4.25;100.00;100494.16;5074253;28;20468;-59
2024/02/07 09:33:17;;;;;;;7.50;2.08;;;;;;;4.28;100.00;100494.88;5074521;28;20472;-59
2024/02/07 09:35:45;;;;;;;12.57;2.17;;;;;;;4.31;100.00;100494.72;5073693;28;20515;-58
2024/02/07 09:38:13;;;;;;;13.32;3.10;;;;;;;4.36;100.00;100494.50;5074324;28;20131;-59
2024/02/07 09:40:44;;;;;;;10.18;2.28;;;;;;;4.40;100.00;100496.06;5072948;28;20046;-59
2024/02/07 09:43:12;;;;;;;10.73;2.55;;;;;;;4.45;100.00;100504.53;5073574;28;20040;-58
2024/02/07 09:45:42;;;;;;;15.02;3.38;;;;;;;4.55;100.00;100505.81;5072753;28;20045;-59
2024/02/07 09:48:18;;;;;;;16.58;3.13;;;;;;;4.53;100.00;100518.03;5074869;28;20044;-59
2024/02/07 09:50:47;;;;;;;9.65;3.17;;;;;;;4.53;100.00;100518.03;5074174;28;20051;-59
2024/02/07 09:53:16;;;;;;;15.10;2.92;;;;;;;4.59;100.00;100506.50;5074727;28;20774;-59
2024/02/07 09:55:46;;;;;;;14.43;2.80;;;;;;;4.61;100.00;100514.25;5074235;28;20132;-59
2024/02/07 09:58:15;;;;;;;14.75;3.42;;;;;;;4.68;100.00;100516.50;5073609;28;20068;-59
2024/02/07 10:00:46;;;;;;;13.68;3.25;;;;;;;4.71;100.00;100507.72;5073917;28;20044;-58
2024/02/07 10:03:17;;;;;;;15.02;3.25;;;;;;;4.79;100.00;100513.41;5073303;28;20060;-59
2024/02/07 10:05:50;;;;;;;11.23;2.83;;;;;;;4.86;100.00;100521.78;5071896;28;20048;-59
2024/02/07 10:08:18;;;;;;;;;;;;;;;4.89;100.00;100513.81;5074110;28;20127;-59
2024/02/07 10:10:47;;;;;;;15.38;2.92;;;;;;;4.90;100.00;100515.50;5072928;28;19924;-59
2024/02/07 10:13:18;;;;;;;12.65;3.40;;;;;;;4.92;100.00;100503.25;5073177;28;20040;-59
2024/02/07 10:15:48;;;;;;;15.68;3.47;;;;;;;4.97;100.00;100511.69;5074421;28;20151;-59
2024/02/07 10:18:17;;;;;;;18.98;3.35;;;;;;;5.03;100.00;100508.81;5074129;28;20424;-59
2024/02/07 10:20:52;;;;;;;11.68;2.40;;;;;;;5.04;100.00;100513.09;5073855;28;20048;-60
2024/02/07 10:23:20;;;;;;;11.13;2.67;;;;;;;5.09;100.00;100515.50;5072773;28;20353;-59
2024/02/07 10:25:49;;;;;;;15.25;2.83;;;;;;;5.15;100.00;100522.19;5072775;28;20117;-59
2024/02/07 10:28:17;;;;;;;10.88;2.58;;;;;;;5.17;100.00;100528.19;5073681;28;20054;-59
2024/02/07 10:30:56;;;;;;;17.92;3.50;;;;;;;5.18;100.00;100524.63;5073591;28;20292;-59
2024/02/07 10:33:34;;;;;;;12.30;2.97;;;;;;;5.22;100.00;100531.38;5072541;28;20049;-59
2024/02/07 10:36:11;;;;;;;16.92;2.90;;;;;;;5.25;100.00;100531.25;5072492;28;20063;-57
2024/02/07 10:38:41;;;;;;;13.88;2.92;;;;;;;5.28;100.00;100515.47;5071704;28;20119;-58
2024/02/07 10:41:09;;;;;;;13.27;3.05;;;;;;;5.29;100.00;100517.16;5071322;28;20064;-58
2024/02/07 10:43:38;;;;;;;14.65;2.95;;;;;;;5.30;100.00;100518.00;5072616;28;20051;-58
2024/02/07 10:46:12;;;;;;;15.07;2.78;;;;;;;5.31;100.00;100519.69;5071288;28;20044;-58
2024/02/07 10:48:43;;;;;;;14.02;2.75;;;;;;;5.37;100.00;100512.41;5072576;28;20097;-58
2024/02/07 10:51:12;;;;;;;10.77;2.25;;;;;;;5.38;100.00;100524.50;5072916;28;20059;-59
2024/02/07 10:53:40;;;;;;;17.38;2.90;;;;;;;5.44;100.00;100536.44;5072859;28;20044;-58
2024/02/07 10:56:13;;;;;;;11.80;2.55;;;;;;;5.47;100.00;100528.44;5070403;28;20041;-57
2024/02/07 10:58:42;;;;;;;16.40;2.85;;;;;;;5.51;100.00;100527.38;5070979;28;20076;-46
2024/02/07 11:01:11;;;;;;;14.45;2.53;;;;;;;5.62;100.00;100523.38;5069244;28;20044;-47
2024/02/07 11:03:39;;;;;;;15.15;2.80;;;;;;;5.63;100.00;100522.47;5069229;28;20555;-46
2024/02/07 11:06:09;;;;;;;10.75;2.33;;;;;;;5.65;100.00;100531.09;5072298;28;20047;-59
2024/02/07 11:08:38;;;;;;;16.88;2.95;;;;;;;5.66;100.00;100524.91;5072448;28;20072;-59
2024/02/07 11:11:06;;;;;;;13.73;2.05;;;;;;;5.69;100.00;100525.63;5069605;28;20147;-48
2024/02/07 11:13:38;;;;;;;10.90;2.00;;;;;;;5.69;100.00;100516.97;5070610;28;20044;-58
2024/02/07 11:16:07;;;;;;;10.52;2.20;;;;;;;5.72;100.00;100509.81;5071971;28;20472;-59
2024/02/07 11:18:36;;;;;;;13.75;2.03;;;;;;;5.79;100.00;100514.72;5069198;28;20101;-58
2024/02/07 11:21:06;;;;;;;11.77;2.45;;;;;;;5.88;100.00;100512.50;5070117;28;20044;-58
2024/02/07 11:23:37;;;;;;;15.00;2.50;;;;;;;5.99;100.00;100511.16;5069664;28;20045;-58
2024/02/07 11:26:08;;;;;;;18.58;3.22;;;;;;;6.01;100.00;100510.16;5067823;28;20040;-47
2024/02/07 11:28:37;;;;;;;17.58;2.13;;;;;;;6.08;100.00;100515.88;5071707;28;20052;-59
2024/02/07 11:31:07;;;;;;;13.88;2.53;;;;;;;6.18;100.00;100516.28;5069423;28;20131;-59
2024/02/07 11:33:37;;;;;;;16.15;2.45;;;;;;;6.18;100.00;100508.44;5068666;28;20041;-51
2024/02/07 11:36:07;;;;;;;12.30;2.60;;;;;;;6.29;100.00;100507.88;5069307;28;20055;-48
2024/02/07 11:38:39;;;;;;;22.23;2.75;;;;;;;6.31;100.00;100511.22;5069804;28;20059;-48
2024/02/07 11:41:08;;;;;;;9.82;2.00;;;;;;;6.50;100.00;100511.09;5065660;28;20052;-47
2024/02/07 11:43:38;;;;;;;14.00;2.03;;;;;;;6.72;100.00;100509.03;5069080;28;20040;-49
2024/02/07 11:46:07;;;;;;;13.10;2.40;;;;;;;6.72;100.00;100513.41;5072281;28;20063;-49
2024/02/07 11:48:39;;;;;;;15.20;2.85;;;;;;;6.77;100.00;100503.53;5072315;28;20610;-51
2024/02/07 11:51:09;;;;;;;19.73;1.88;;;;;;;6.76;100.00;100507.06;5072142;28;20072;-50
2024/02/07 11:53:41;;;;;;;11.55;1.80;;;;;;;6.87;100.00;100498.66;5072130;28;20496;-46
2024/02/07 11:56:11;;;;;;;16.63;2.45;;;;;;;6.86;100.00;100502.22;5071913;28;20095;-47
2024/02/07 11:58:41;;;;;;;15.10;2.20;;;;;;;6.85;100.00;100506.59;5069124;28;20399;-50
2024/02/07 12:01:11;;;;;;;11.00;1.90;;;;;;;6.89;100.00;100502.88;5068836;28;20064;-48
2024/02/07 12:03:39;;;;;;;17.67;2.40;;;;;;;6.85;100.00;100496.13;5068935;28;20683;-47
2024/02/07 12:06:09;;;;;;;17.42;2.90;;;;;;;6.97;100.00;100501.59;5068643;28;20135;-50
2024/02/07 12:08:38;;;;;;;16.58;2.63;;;;;;;6.98;100.00;100492.81;5069040;28;20049;-48
2024/02/07 12:11:09;;;;;;;17.65;2.95;;;;;;;7.02;100.00;100504.81;5071875;28;20049;-49
2024/02/07 12:13:39;;;;;;;10.82;1.92;;;;;;;7.03;100.00;100507.31;5072237;28;20049;-47
2024/02/07 12:16:09;;;;;;;15.70;2.05;;;;;;;6.96;100.00;100503.38;5071951;28;20044;-47
2024/02/07 12:18:41;;;;;;;17.10;2.67;;;;;;;7.06;100.00;100501.94;5071924;28;20481;-47
2024/02/07 12:21:09;;;;;;;12.50;2.00;;;;;;;7.10;100.00;100507.84;5070578;28;20434;-46
2024/02/07 12:23:39;;;;;;;14.15;2.10;;;;;;;7.18;100.00;100502.19;5071869;28;20076;-46
2024/02/07 12:26:08;;;;;;;11.80;1.63;;;;;;;7.26;100.00;100515.66;5071735;28;20507;-46
2024/02/07 12:28:36;;;;;;;11.85;2.03;;;;;;;7.30;100.00;100517.19;5070662;28;20097;-48
2024/02/07 12:31:05;;;;;;;17.55;2.95;;;;;;;7.34;100.00;100516.06;5071956;28;20094;-47
2024/02/07 12:33:33;;;;;;;14.25;2.35;;;;;;;7.54;100.00;100517.56;5069366;28;20094;-49
2024/02/07 12:36:02;;;;;;;15.50;3.00;;;;;;;7.53;100.00;100520.28;5069305;28;20052;-48
2024/02/07 12:38:31;;;;;;;10.75;2.00;;;;;;;7.50;100.00;100513.44;5072402;28;20049;-49